createdAt,value
2022-08-31T00:02:04.455Z,55.23
2022-08-31T00:04:32.545Z,53.16
2022-08-31T00:06:59.179Z,55.71
2022-08-31T00:09:25.750Z,56.55
2022-08-31T00:11:52.219Z,55.82
2022-08-31T00:14:19.564Z,55.03
2022-08-31T00:16:46.214Z,55.34
2022-08-31T00:19:15.180Z,56.32
2022-08-31T00:21:41.938Z,54.13
2022-08-31T00:24:11.933Z,53.59
2022-08-31T00:26:38.465Z,53.35
2022-08-31T00:29:05.118Z,56.99
2022-08-31T00:31:31.677Z,56.08
2022-08-31T00:33:58.254Z,57.03
2022-08-31T00:36:27.041Z,58.55
2022-08-31T00:38:54.926Z,59.51
2022-08-31T00:41:24.823Z,55.63
2022-08-31T00:43:54.293Z,57.03
2022-08-31T00:46:25.562Z,57.04
2022-08-31T00:49:02.177Z,58.97
2022-08-31T00:51:32.499Z,59.31
2022-08-31T00:54:00.248Z,59.64
2022-08-31T00:56:27.282Z,60.49
2022-08-31T00:58:55.152Z,60.55
2022-08-31T01:01:22.410Z,60.54
2022-08-31T01:03:49.795Z,59.91
2022-08-31T01:06:17.212Z,57.85
2022-08-31T01:08:45.757Z,58.74
2022-08-31T01:11:13.986Z,60.71
2022-08-31T01:13:41.806Z,57.30
2022-08-31T01:16:14.476Z,60.82
2022-08-31T01:18:42.110Z,58.58
2022-08-31T01:21:11.284Z,61.28
2022-08-31T01:23:42.884Z,59.98
2022-08-31T01:26:13.222Z,58.70
2022-08-31T01:28:39.701Z,61.34
2022-08-31T01:31:09.911Z,61.15
2022-08-31T01:33:38.907Z,59.38
2022-08-31T01:36:07.837Z,61.80
2022-08-31T01:38:36.164Z,62.50
2022-08-31T01:41:04.244Z,60.00
2022-08-31T01:43:35.617Z,62.20
2022-08-31T01:46:04.901Z,63.19
2022-08-31T01:48:36.765Z,62.44
2022-08-31T01:51:09.427Z,63.03
2022-08-31T01:53:38.925Z,64.47
2022-08-31T01:56:11.947Z,59.75
2022-08-31T01:58:38.567Z,62.90
2022-08-31T02:01:31.204Z,62.96
2022-08-31T02:03:52.605Z,64.18
2022-08-31T02:06:23.852Z,62.16
2022-08-31T02:08:50.307Z,61.20
2022-08-31T02:11:16.777Z,61.92
2022-08-31T02:13:43.597Z,60.51
2022-08-31T02:16:10.255Z,63.65
2022-08-31T02:18:37.135Z,61.65
2022-08-31T02:21:04.463Z,62.27
2022-08-31T02:23:31.238Z,60.42
2022-08-31T02:25:58.010Z,60.70
2022-08-31T02:28:24.644Z,62.73
2022-08-31T02:30:51.240Z,62.83
2022-08-31T02:33:17.896Z,63.46
2022-08-31T02:35:44.517Z,61.48
2022-08-31T02:38:11.552Z,62.55
2022-08-31T02:40:40.979Z,64.12
2022-08-31T02:43:12.865Z,62.53
2022-08-31T02:45:52.983Z,62.81
2022-08-31T02:48:20.983Z,62.51
2022-08-31T02:50:51.125Z,62.99
2022-08-31T02:53:20.626Z,64.18
2022-08-31T02:55:47.227Z,63.26
2022-08-31T02:58:14.501Z,62.37
2022-08-31T03:00:45.085Z,61.87
2022-08-31T03:03:11.747Z,63.84
2022-08-31T03:05:38.812Z,61.47
2022-08-31T03:08:05.348Z,59.08
2022-08-31T03:10:31.799Z,59.29
2022-08-31T03:12:58.299Z,61.80
2022-08-31T03:15:25.614Z,62.57
2022-08-31T03:17:52.551Z,64.72
2022-08-31T03:20:20.396Z,62.91
2022-08-31T03:22:47.102Z,60.91
2022-08-31T03:25:14.474Z,64.74
2022-08-31T03:27:41.131Z,62.66
2022-08-31T03:30:10.344Z,64.38
2022-08-31T03:32:36.903Z,63.17
2022-08-31T03:35:03.973Z,65.04
2022-08-31T03:37:30.449Z,61.11
2022-08-31T03:39:57.135Z,60.86
2022-08-31T03:42:24.430Z,59.56
2022-08-31T03:44:51.219Z,62.50
2022-08-31T03:47:17.785Z,61.15
2022-08-31T03:49:44.807Z,64.70
2022-08-31T03:52:11.536Z,64.04
2022-08-31T03:54:38.035Z,63.05
2022-08-31T03:57:05.898Z,64.58
2022-08-31T03:59:32.393Z,60.77
2022-08-31T04:01:58.961Z,63.33
2022-08-31T04:04:25.513Z,64.76
2022-08-31T04:06:51.990Z,59.99
2022-08-31T04:09:18.611Z,63.67
2022-08-31T04:11:45.881Z,61.56
2022-08-31T04:14:15.364Z,65.89
2022-08-31T04:16:43.755Z,65.19
2022-08-31T04:19:11.390Z,65.10
2022-08-31T04:21:38.177Z,63.04
2022-08-31T04:24:06.043Z,63.87
2022-08-31T04:26:35.314Z,64.01
2022-08-31T04:29:07.644Z,67.11
2022-08-31T04:31:37.425Z,65.00
2022-08-31T04:34:05.371Z,65.13
2022-08-31T04:36:31.925Z,65.38
2022-08-31T04:39:01.421Z,63.64
2022-08-31T04:41:30.236Z,65.52
2022-08-31T04:43:59.039Z,65.44
2022-08-31T04:46:26.768Z,65.70
2022-08-31T04:48:53.569Z,66.96
2022-08-31T04:51:28.757Z,63.87
2022-08-31T04:53:55.648Z,66.20
2022-08-31T04:56:34.148Z,63.91
2022-08-31T04:59:04.386Z,65.30
2022-08-31T05:01:36.786Z,66.68
2022-08-31T05:04:11.514Z,65.36
2022-08-31T05:06:40.380Z,63.87
2022-08-31T05:09:10.568Z,62.73
2022-08-31T05:11:37.582Z,65.98
2022-08-31T05:14:06.225Z,63.36
2022-08-31T05:16:33.941Z,65.14
2022-08-31T05:19:01.252Z,67.23
2022-08-31T05:21:37.149Z,66.92
2022-08-31T05:24:16.909Z,66.32
2022-08-31T05:26:52.135Z,66.09
2022-08-31T05:29:21.687Z,63.62
2022-08-31T05:31:52.226Z,64.32
2022-08-31T05:34:21.378Z,65.23
2022-08-31T05:36:53.755Z,62.48
2022-08-31T05:39:20.825Z,65.46
2022-08-31T05:41:48.252Z,63.14
2022-08-31T05:44:16.007Z,62.74
2022-08-31T05:46:42.700Z,65.69
2022-08-31T05:49:11.516Z,66.47
2022-08-31T05:51:39.141Z,64.99
2022-08-31T05:54:07.515Z,66.36
2022-08-31T05:56:34.593Z,67.85
2022-08-31T05:59:01.158Z,68.31
2022-08-31T06:01:34.111Z,65.34
2022-08-31T06:04:01.858Z,65.83
2022-08-31T06:06:29.234Z,64.39
2022-08-31T06:08:56.509Z,66.59
2022-08-31T06:11:25.899Z,62.78
2022-08-31T06:13:53.958Z,65.43
2022-08-31T06:16:21.048Z,62.77
2022-08-31T06:18:51.269Z,66.31
2022-08-31T06:21:21.047Z,65.88
2022-08-31T06:23:49.895Z,63.16
2022-08-31T06:26:18.986Z,63.92
2022-08-31T06:28:48.412Z,64.06
2022-08-31T06:31:42.540Z,60.80
2022-08-31T06:34:09.185Z,59.78
2022-08-31T06:36:35.683Z,60.93
2022-08-31T06:39:03.157Z,61.65
2022-08-31T06:41:36.382Z,61.59
2022-08-31T06:44:08.833Z,63.53
2022-08-31T06:46:36.983Z,60.54
2022-08-31T06:49:04.776Z,60.02
2022-08-31T06:51:36.464Z,59.27
2022-08-31T06:54:27.621Z,59.03
2022-08-31T06:56:51.519Z,59.40
2022-08-31T06:59:18.105Z,59.24
2022-08-31T07:01:44.697Z,56.58
2022-08-31T07:04:12.285Z,54.95
2022-08-31T07:06:42.232Z,54.77
2022-08-31T07:09:12.279Z,58.75
2022-08-31T07:11:44.711Z,55.88
2022-08-31T07:14:14.642Z,53.74
2022-08-31T07:16:42.807Z,53.91
2022-08-31T07:19:10.350Z,55.41
2022-08-31T07:21:44.398Z,53.32
2022-08-31T07:24:13.420Z,55.16
2022-08-31T07:26:48.600Z,57.70
2022-08-31T07:29:17.243Z,56.31
2022-08-31T07:31:46.819Z,55.59
2022-08-31T07:34:15.979Z,52.30
2022-08-31T07:37:01.727Z,58.47
2022-08-31T07:39:47.664Z,58.24
2022-08-31T07:42:18.095Z,54.76
2022-08-31T07:44:53.152Z,53.13
2022-08-31T07:47:22.082Z,54.38
2022-08-31T07:49:53.133Z,54.54
2022-08-31T07:52:26.435Z,53.87
2022-08-31T07:54:56.626Z,51.69
2022-08-31T07:57:30.165Z,52.21
2022-08-31T08:00:08.058Z,50.55
2022-08-31T08:02:38.261Z,53.75
2022-08-31T08:05:11.014Z,49.32
2022-08-31T08:07:39.581Z,50.05
2022-08-31T08:10:09.749Z,52.63
2022-08-31T08:12:36.806Z,50.97
2022-08-31T08:15:06.542Z,53.37
2022-08-31T08:17:33.193Z,53.61
2022-08-31T08:19:59.686Z,51.63
2022-08-31T08:22:50.894Z,51.91
2022-08-31T08:25:14.316Z,53.13
2022-08-31T08:27:43.356Z,51.31
2022-08-31T08:30:13.669Z,52.95
2022-08-31T08:32:41.962Z,52.94
2022-08-31T08:35:12.675Z,53.54
2022-08-31T08:37:57.778Z,52.83
2022-08-31T08:40:41.640Z,52.64
2022-08-31T08:43:15.919Z,54.00
2022-08-31T08:45:48.553Z,54.95
2022-08-31T08:48:17.595Z,54.42
2022-08-31T08:50:44.378Z,53.97
2022-08-31T08:53:13.427Z,53.70
2022-08-31T08:55:42.116Z,54.25
2022-08-31T08:58:13.473Z,53.50
2022-08-31T09:00:46.390Z,52.70
2022-08-31T09:03:30.815Z,51.59
2022-08-31T09:06:09.700Z,50.36
2022-08-31T09:09:08.774Z,47.99
2022-08-31T09:11:35.625Z,47.34
2022-08-31T09:14:26.479Z,51.20
2022-08-31T09:17:16.923Z,47.69
2022-08-31T09:20:01.141Z,50.50
2022-08-31T09:22:29.547Z,50.76
2022-08-31T09:24:59.775Z,52.91
2022-08-31T09:27:48.360Z,49.36
2022-08-31T09:30:50.661Z,53.15
2022-08-31T09:33:17.196Z,50.93
2022-08-31T09:35:44.188Z,48.55
2022-08-31T09:38:25.669Z,47.95
2022-08-31T09:40:53.038Z,45.49
2022-08-31T09:43:24.823Z,45.36
2022-08-31T09:46:11.780Z,46.65
2022-08-31T09:48:52.024Z,47.38
2022-08-31T09:51:25.379Z,46.64
2022-08-31T09:54:11.392Z,43.36
2022-08-31T09:56:55.913Z,44.92
2022-08-31T09:59:40.032Z,41.40
2022-08-31T10:02:26.132Z,45.60
2022-08-31T10:04:55.435Z,43.20
2022-08-31T10:08:10.682Z,45.75
2022-08-31T10:10:39.550Z,45.91
2022-08-31T10:13:18.832Z,45.73
2022-08-31T10:16:02.497Z,46.81
2022-08-31T10:18:39.416Z,44.66
2022-08-31T10:21:10.862Z,40.81
2022-08-31T10:23:54.210Z,44.55
2022-08-31T10:26:29.496Z,41.37
2022-08-31T10:28:59.940Z,39.88
2022-08-31T10:31:36.956Z,41.69
2022-08-31T10:34:29.183Z,40.84
2022-08-31T10:37:03.524Z,42.16
2022-08-31T10:39:35.101Z,41.10
2022-08-31T10:42:07.250Z,39.42
2022-08-31T10:44:49.989Z,39.73
2022-08-31T10:47:32.527Z,42.66
2022-08-31T10:50:00.994Z,39.57
2022-08-31T10:52:38.685Z,39.24
2022-08-31T10:55:07.818Z,39.62
2022-08-31T10:57:45.357Z,38.46
2022-08-31T11:00:35.984Z,37.27
2022-08-31T11:03:21.498Z,39.34
2022-08-31T11:06:03.199Z,37.71
2022-08-31T11:08:56.261Z,37.88
2022-08-31T11:11:42.481Z,39.61
2022-08-31T11:14:36.692Z,35.96
2022-08-31T11:17:03.151Z,37.66
2022-08-31T11:20:03.623Z,37.28
2022-08-31T11:22:42.887Z,39.27
2022-08-31T11:25:35.593Z,39.23
2022-08-31T11:28:12.513Z,37.65
2022-08-31T11:30:51.028Z,38.11
2022-08-31T11:33:25.544Z,38.37
2022-08-31T11:36:02.709Z,37.18
2022-08-31T11:38:52.637Z,38.90
2022-08-31T11:41:47.525Z,37.50
2022-08-31T11:44:34.340Z,36.08
2022-08-31T11:47:29.031Z,36.31
2022-08-31T11:50:05.387Z,34.48
2022-08-31T11:52:53.399Z,36.21
2022-08-31T11:55:25.445Z,32.92
2022-08-31T11:58:18.561Z,32.81
2022-08-31T12:01:10.405Z,34.31
2022-08-31T12:04:03.503Z,35.47
2022-08-31T12:06:33.709Z,33.98
2022-08-31T12:09:11.126Z,34.44
2022-08-31T12:11:52.042Z,33.62
2022-08-31T12:14:27.519Z,34.46
2022-08-31T12:17:13.152Z,37.20
2022-08-31T12:20:01.678Z,35.78
2022-08-31T12:22:53.288Z,37.49
2022-08-31T12:25:44.433Z,35.32
2022-08-31T12:28:29.189Z,34.44
2022-08-31T12:30:58.351Z,35.29
2022-08-31T12:33:28.994Z,33.08
2022-08-31T12:36:12.389Z,34.47
2022-08-31T12:38:38.974Z,33.48
2022-08-31T12:41:06.021Z,35.74
2022-08-31T12:43:38.584Z,33.14
2022-08-31T12:46:05.210Z,32.07
2022-08-31T12:49:05.342Z,34.36
2022-08-31T12:51:49.747Z,32.03
2022-08-31T12:54:47.613Z,31.52
2022-08-31T12:57:29.041Z,29.54
2022-08-31T13:00:26.241Z,30.13
2022-08-31T13:02:59.484Z,30.37
2022-08-31T13:05:29.998Z,30.54
2022-08-31T13:07:57.545Z,31.22
2022-08-31T13:10:34.968Z,30.98
2022-08-31T13:13:08.734Z,32.61
2022-08-31T13:15:40.051Z,30.59
2022-08-31T13:18:21.891Z,30.66
2022-08-31T13:20:54.462Z,30.07
2022-08-31T13:23:27.130Z,28.67
2022-08-31T13:26:02.191Z,29.80
2022-08-31T13:28:34.995Z,30.52
2022-08-31T13:31:10.738Z,29.19
2022-08-31T13:33:40.193Z,28.15
2022-08-31T13:36:32.033Z,28.50
2022-08-31T13:39:21.908Z,30.54
2022-08-31T13:41:56.244Z,30.88
2022-08-31T13:44:31.735Z,29.65
2022-08-31T13:47:02.936Z,31.01
2022-08-31T13:49:38.623Z,30.09
2022-08-31T13:52:14.280Z,30.43
2022-08-31T13:54:40.988Z,30.59
2022-08-31T13:57:16.105Z,31.03
2022-08-31T13:59:42.568Z,29.76
2022-08-31T14:02:15.956Z,32.55
2022-08-31T14:04:57.247Z,32.05
2022-08-31T14:07:32.055Z,32.00
2022-08-31T14:10:19.532Z,31.66
2022-08-31T14:12:52.507Z,30.16
2022-08-31T14:15:21.427Z,29.82
2022-08-31T14:21:23.135Z,31.23
2022-08-31T14:23:57.424Z,30.44
2022-08-31T14:26:28.758Z,31.58
2022-08-31T14:29:02.150Z,33.17
2022-08-31T14:31:34.749Z,32.54
2022-08-31T14:34:19.938Z,30.44
2022-08-31T14:36:55.208Z,31.23
2022-08-31T14:39:27.812Z,32.87
2022-08-31T14:41:57.113Z,32.00
2022-08-31T14:44:28.132Z,30.50
2022-08-31T14:46:54.622Z,31.19
2022-08-31T14:49:21.489Z,32.51
2022-08-31T14:51:47.980Z,32.46
2022-08-31T14:54:16.838Z,33.04
2022-08-31T14:56:50.158Z,31.61
2022-08-31T14:59:21.753Z,31.59
2022-08-31T15:01:50.467Z,30.52
2022-08-31T15:04:20.657Z,31.01
2022-08-31T15:07:06.812Z,30.81
2022-08-31T15:09:40.471Z,31.42
2022-08-31T15:12:08.040Z,30.52
2022-08-31T15:14:37.963Z,31.43
2022-08-31T15:17:06.762Z,30.61
2022-08-31T15:19:39.162Z,29.71
2022-08-31T15:22:09.217Z,30.02
2022-08-31T15:24:38.179Z,30.39
2022-08-31T15:27:14.478Z,31.12
2022-08-31T15:29:45.583Z,30.25
2022-08-31T15:32:17.092Z,31.06
2022-08-31T15:34:56.188Z,31.15
2022-08-31T15:37:22.922Z,30.30
2022-08-31T15:39:50.670Z,31.56
2022-08-31T15:42:20.186Z,32.04
2022-08-31T15:44:56.075Z,31.66
2022-08-31T15:47:50.599Z,31.31
2022-08-31T15:50:19.413Z,31.99
2022-08-31T15:52:51.084Z,32.20
2022-08-31T15:55:25.007Z,31.26
2022-08-31T15:57:54.101Z,31.82
2022-08-31T16:00:23.499Z,31.75
2022-08-31T16:02:54.722Z,30.65
2022-08-31T16:05:22.325Z,31.58
2022-08-31T16:07:51.171Z,31.75
2022-08-31T16:10:20.292Z,31.49
2022-08-31T16:12:47.739Z,32.14
2022-08-31T16:15:15.637Z,31.71
2022-08-31T16:17:42.904Z,32.66
2022-08-31T16:20:11.895Z,31.63
2022-08-31T16:22:38.916Z,32.56
2022-08-31T16:25:08.378Z,32.37
2022-08-31T16:27:34.973Z,32.64
2022-08-31T16:30:01.582Z,31.88
2022-08-31T16:32:28.108Z,32.23
2022-08-31T16:34:56.744Z,31.73
2022-08-31T16:37:23.850Z,31.16
2022-08-31T16:39:50.334Z,30.41
2022-08-31T16:42:17.624Z,31.95
2022-08-31T16:44:46.807Z,31.05
2022-08-31T16:47:16.581Z,30.15
2022-08-31T16:49:43.967Z,30.74
2022-08-31T16:52:16.806Z,29.88
2022-08-31T16:54:47.887Z,28.70
2022-08-31T16:57:17.130Z,28.90
2022-08-31T16:59:44.201Z,28.30
2022-08-31T17:02:14.135Z,30.29
2022-08-31T17:04:58.591Z,29.12
2022-08-31T17:07:25.141Z,30.16
2022-08-31T17:09:57.193Z,30.01
2022-08-31T17:12:25.976Z,29.85
2022-08-31T17:14:53.070Z,30.30
2022-08-31T17:17:25.397Z,30.17
2022-08-31T17:19:53.267Z,30.14
2022-08-31T17:22:27.066Z,31.68
2022-08-31T17:24:57.663Z,30.35
2022-08-31T17:27:26.121Z,30.90
2022-08-31T17:29:55.954Z,32.76
2022-08-31T17:32:25.721Z,31.50
2022-08-31T17:34:54.330Z,31.57
2022-08-31T17:37:26.382Z,31.74
2022-08-31T17:39:53.956Z,30.92
2022-08-31T17:42:22.036Z,31.82
2022-08-31T17:44:52.084Z,30.45
2022-08-31T17:47:20.785Z,29.74
2022-08-31T17:49:47.454Z,30.46
2022-08-31T17:52:14.165Z,31.53
2022-08-31T17:54:43.041Z,30.73
2022-08-31T17:57:13.016Z,32.62
2022-08-31T17:59:43.095Z,31.07
2022-08-31T18:02:17.398Z,30.53
2022-08-31T18:04:44.330Z,30.97
2022-08-31T18:07:11.821Z,31.03
2022-08-31T18:09:41.585Z,31.64
2022-08-31T18:12:09.571Z,31.10
2022-08-31T18:14:38.823Z,33.17
2022-08-31T18:17:10.738Z,33.93
2022-08-31T18:19:37.851Z,34.19
2022-08-31T18:22:04.645Z,32.70
2022-08-31T18:24:35.342Z,34.83
2022-08-31T18:27:06.763Z,33.15
2022-08-31T18:29:34.435Z,33.18
2022-08-31T18:32:05.403Z,33.10
2022-08-31T18:34:44.020Z,33.22
2022-08-31T18:37:12.766Z,33.41
2022-08-31T18:39:59.674Z,35.31
2022-08-31T18:42:56.902Z,34.88
2022-08-31T18:45:23.688Z,34.94
2022-08-31T18:50:44.065Z,36.30
2022-08-31T18:53:14.938Z,34.98
2022-08-31T18:55:43.282Z,35.13
2022-08-31T18:58:10.157Z,36.25
2022-08-31T19:00:37.028Z,35.70
2022-08-31T19:03:03.866Z,36.12
2022-08-31T19:05:31.536Z,36.40
2022-08-31T19:08:00.118Z,35.87
2022-08-31T19:10:26.947Z,35.81
2022-08-31T19:12:57.104Z,35.89
2022-08-31T19:15:35.143Z,36.62
2022-08-31T19:18:05.133Z,37.73
2022-08-31T19:20:35.473Z,38.32
2022-08-31T19:23:02.191Z,38.64
2022-08-31T19:25:28.732Z,39.09
2022-08-31T19:27:55.549Z,38.33
2022-08-31T19:30:27.307Z,38.50
2022-08-31T19:32:56.151Z,39.20
2022-08-31T19:35:22.790Z,39.09
2022-08-31T19:37:51.825Z,38.14
2022-08-31T19:40:19.135Z,37.21
2022-08-31T19:45:43.766Z,36.32
2022-08-31T19:48:11.668Z,36.33
2022-08-31T19:50:42.572Z,36.05
2022-08-31T19:53:13.435Z,36.32
2022-08-31T19:55:51.311Z,36.25
2022-08-31T19:58:22.020Z,35.70
2022-08-31T20:00:50.009Z,36.08
2022-08-31T20:03:19.340Z,36.37
2022-08-31T20:05:46.679Z,36.19
2022-08-31T20:08:13.309Z,35.90
2022-08-31T20:10:44.926Z,36.38
2022-08-31T20:13:12.501Z,36.29
2022-08-31T20:15:44.399Z,36.22
2022-08-31T20:18:12.508Z,36.55
2022-08-31T20:20:45.464Z,36.40
2022-08-31T20:23:16.769Z,36.34
2022-08-31T20:25:45.245Z,36.88
2022-08-31T20:28:12.495Z,38.54
2022-08-31T20:30:40.974Z,37.56
2022-08-31T20:33:08.183Z,37.08
2022-08-31T20:35:38.666Z,37.87
2022-08-31T20:38:06.099Z,38.93
2022-08-31T20:40:33.416Z,39.99
2022-08-31T20:43:02.961Z,40.89
2022-08-31T20:45:29.493Z,41.67
2022-08-31T20:48:14.360Z,41.16
2022-08-31T20:50:42.797Z,41.85
2022-08-31T20:53:17.777Z,41.65
2022-08-31T20:58:17.986Z,42.04
2022-08-31T21:00:47.503Z,41.70
2022-08-31T21:03:16.096Z,42.52
2022-08-31T21:05:43.103Z,43.24
2022-08-31T21:08:11.522Z,44.54
2022-08-31T21:10:40.130Z,43.88
2022-08-31T21:13:12.403Z,44.00
2022-08-31T21:15:41.759Z,45.12
2022-08-31T21:18:08.249Z,46.08
2022-08-31T21:20:35.397Z,44.37
2022-08-31T21:23:01.894Z,44.79
2022-08-31T21:25:29.481Z,43.65
2022-08-31T21:27:55.921Z,43.31
2022-08-31T21:30:22.426Z,42.78
2022-08-31T21:32:48.899Z,42.64
2022-08-31T21:35:15.506Z,43.48
2022-08-31T21:37:42.009Z,42.64
2022-08-31T21:40:10.284Z,43.34
2022-08-31T21:42:36.810Z,44.04
2022-08-31T21:45:03.469Z,44.31
2022-08-31T21:47:30.062Z,45.15
2022-08-31T21:49:56.557Z,47.58
2022-08-31T21:52:24.840Z,47.37
2022-08-31T21:54:51.739Z,47.76
2022-08-31T21:57:18.289Z,48.65
2022-08-31T21:59:44.795Z,49.09
2022-08-31T22:02:11.923Z,48.93
2022-08-31T22:04:41.656Z,49.21
2022-08-31T22:07:09.470Z,49.38
2022-08-31T22:09:36.804Z,49.34
2022-08-31T22:12:06.490Z,50.29
2022-08-31T22:14:36.472Z,50.79
2022-08-31T22:17:05.589Z,49.95
2022-08-31T22:19:36.108Z,50.65
2022-08-31T22:22:07.075Z,51.03
2022-08-31T22:24:35.969Z,49.33
2022-08-31T22:27:06.021Z,49.87
2022-08-31T22:29:35.259Z,47.32
2022-08-31T22:32:08.473Z,51.81
2022-08-31T22:34:36.396Z,50.55
2022-08-31T22:37:04.290Z,49.70
2022-08-31T22:39:31.379Z,49.69
2022-08-31T22:41:59.443Z,49.40
2022-08-31T22:44:28.438Z,48.62
2022-08-31T22:46:56.947Z,48.77
2022-08-31T22:49:24.686Z,48.91
2022-08-31T22:51:51.287Z,48.61
2022-08-31T22:54:19.506Z,48.29
2022-08-31T22:56:46.895Z,47.63
2022-08-31T22:59:16.971Z,47.09
2022-08-31T23:01:49.767Z,47.31
2022-08-31T23:04:19.858Z,47.46
2022-08-31T23:06:48.839Z,47.15
2022-08-31T23:09:20.854Z,47.48
2022-08-31T23:11:48.920Z,48.95
2022-08-31T23:14:15.462Z,49.60
2022-08-31T23:16:46.892Z,51.59
2022-08-31T23:19:18.212Z,52.02
2022-08-31T23:21:52.884Z,51.00
2022-08-31T23:24:30.758Z,51.05
2022-08-31T23:27:03.926Z,50.95
2022-08-31T23:29:34.842Z,53.09
2022-08-31T23:32:01.470Z,53.36
2022-08-31T23:34:28.219Z,53.30
2022-08-31T23:36:55.534Z,51.93
2022-08-31T23:39:24.189Z,50.83
2022-08-31T23:41:53.267Z,51.06
2022-08-31T23:44:21.117Z,49.46
2022-08-31T23:46:49.095Z,50.04
2022-08-31T23:49:17.490Z,50.64
2022-08-31T23:51:45.177Z,50.47
2022-08-31T23:54:12.632Z,50.68
2022-08-31T23:56:41.404Z,52.17
2022-08-31T23:59:13.982Z,50.65
